Time;durP1;ratioP1;P1;durP2;ratioP2;P2;SDS_P1;SDS_P2;PMS_P1;PMS_P2;Temp;Humidity;BMP_temperature;BMP_pressure;BME280_temperature;BME280_humidity;BME280_pressure;Samples;Min_cycle;Max_cycle;Signal;HPM_P1;HPM_P2
2023/08/18 00:00:14;;;;;;;11.25;10.18;;;;;;;19.75;87.23;101527.94;3615797;39;20083;-65
2023/08/18 00:02:40;;;;;;;10.93;9.82;;;;;;;19.74;86.72;101526.22;3613948;39;20523;-65
2023/08/18 00:05:07;;;;;;;11.15;9.93;;;;;;;19.74;87.44;101524.34;3616691;39;20139;-64
2023/08/18 00:07:33;;;;;;;11.10;10.00;;;;;;;19.74;86.50;101520.75;3614341;39;20046;-64
2023/08/18 00:10:00;;;;;;;10.77;9.73;;;;;;;19.75;86.63;101522.47;3613681;39;20074;-64
2023/08/18 00:12:26;;;;;;;11.05;9.95;;;;;;;19.74;86.09;101516.16;3613976;39;20453;-66
2023/08/18 00:14:52;;;;;;;11.85;10.23;;;;;;;19.69;85.96;101519.31;3613924;39;20050;-64
2023/08/18 00:17:18;;;;;;;10.75;9.75;;;;;;;19.68;85.76;101523.03;3616322;39;20082;-64
2023/08/18 00:19:44;;;;;;;10.65;9.55;;;;;;;19.70;86.83;101515.59;3615194;39;20051;-64
2023/08/18 00:22:10;;;;;;;10.35;9.25;;;;;;;19.64;86.26;101507.94;3614325;39;20058;-64
2023/08/18 00:24:36;;;;;;;10.52;9.38;;;;;;;19.63;86.00;101503.47;3616110;39;20072;-64
2023/08/18 00:27:02;;;;;;;11.00;9.23;;;;;;;19.66;85.86;101508.69;3618202;39;20067;-64
2023/08/18 00:29:28;;;;;;;10.77;9.60;;;;;;;19.62;86.05;101496.25;3613931;39;20119;-64
2023/08/18 00:31:54;;;;;;;11.10;9.73;;;;;;;19.66;86.09;101507.78;3616882;39;20401;-64
2023/08/18 00:34:19;;;;;;;9.50;8.60;;;;;;;19.64;85.43;101513.41;3606958;39;20058;-65
2023/08/18 00:36:45;;;;;;;10.15;9.18;;;;;;;19.57;85.78;101493.09;3614916;39;20563;-65
2023/08/18 00:39:11;;;;;;;12.05;9.48;;;;;;;19.58;85.92;101494.81;3613266;39;20043;-65
2023/08/18 00:41:36;;;;;;;9.95;8.65;;;;;;;19.55;85.51;101500.56;3615771;39;20061;-65
2023/08/18 00:44:02;;;;;;;9.88;8.70;;;;;;;19.52;85.61;101498.09;3616248;39;20090;-65
2023/08/18 00:46:30;;;;;;;9.07;8.18;;;;;;;19.49;85.25;101501.94;3618013;39;20067;-65
2023/08/18 00:49:03;;;;;;;9.35;8.25;;;;;;;19.47;85.40;101501.25;3618227;39;20056;-65
2023/08/18 00:51:32;;;;;;;9.03;8.23;;;;;;;19.47;85.26;101503.09;3615986;39;20047;-65
2023/08/18 00:53:59;;;;;;;9.30;8.20;;;;;;;19.43;85.17;101507.09;3611806;39;20067;-64
2023/08/18 00:56:25;;;;;;;9.13;8.20;;;;;;;19.37;86.01;101499.44;3615240;39;20357;-65
2023/08/18 00:58:52;;;;;;;9.57;8.57;;;;;;;19.40;85.67;101501.91;3614033;39;20062;-65
2023/08/18 01:01:17;;;;;;;9.50;8.60;;;;;;;19.18;85.03;101468.34;3615944;39;20055;-65
2023/08/18 01:03:44;;;;;;;9.55;8.65;;;;;;;19.29;85.29;101488.38;3613587;39;20091;-65
2023/08/18 01:06:10;;;;;;;10.07;8.65;;;;;;;19.32;85.03;101504.47;3614310;39;20822;-65
2023/08/18 01:08:36;;;;;;;10.20;8.35;;;;;;;19.27;85.09;101501.28;3614468;39;20061;-65
2023/08/18 01:11:14;;;;;;;9.25;8.35;;;;;;;19.25;85.73;101498.66;3604307;39;20091;-66
2023/08/18 01:14:02;;;;;;;10.32;8.50;;;;;;;19.24;85.39;101505.13;3612399;39;20073;-65
2023/08/18 01:16:29;;;;;;;9.23;8.32;;;;;;;19.24;85.66;101503.25;3606911;39;20385;-65
2023/08/18 01:18:55;;;;;;;9.25;8.20;;;;;;;19.21;85.54;101497.22;3613618;39;20167;-65
2023/08/18 01:21:25;;;;;;;9.38;8.43;;;;;;;19.24;85.02;101503.25;3614765;39;20053;-65
2023/08/18 01:23:51;;;;;;;8.93;8.02;;;;;;;19.11;85.45;101475.34;3612505;39;20065;-65
2023/08/18 01:26:17;;;;;;;9.68;8.68;;;;;;;19.20;85.70;101485.44;3614400;39;20101;-65
2023/08/18 01:28:44;;;;;;;9.32;8.45;;;;;;;19.09;85.21;101465.56;3615053;39;20051;-65
2023/08/18 01:31:19;;;;;;;10.00;8.93;;;;;;;19.18;85.48;101481.13;3615910;39;21391;-65
2023/08/18 01:33:54;;;;;;;9.45;8.52;;;;;;;19.20;85.91;101476.41;3617219;39;20432;-64
2023/08/18 01:36:38;;;;;;;9.65;8.70;;;;;;;19.19;84.83;101478.28;3613177;39;20297;-65
2023/08/18 01:39:06;;;;;;;9.57;8.40;;;;;;;19.17;85.37;101469.38;3614285;39;20104;-65
2023/08/18 01:41:34;;;;;;;9.30;8.35;;;;;;;19.17;85.47;101463.91;3615657;39;20048;-65
2023/08/18 01:44:00;;;;;;;8.95;8.15;;;;;;;19.15;85.29;101457.72;3612247;39;20534;-66
2023/08/18 01:46:26;;;;;;;9.38;8.48;;;;;;;18.97;85.15;101434.84;3613745;39;20043;-65
2023/08/18 01:48:52;;;;;;;9.32;8.40;;;;;;;19.12;85.47;101463.44;3615038;39;20066;-65
2023/08/18 01:51:17;;;;;;;8.98;8.10;;;;;;;19.11;85.47;101475.34;3617090;39;20055;-65
2023/08/18 01:53:43;;;;;;;9.07;8.27;;;;;;;19.10;84.67;101462.72;3613668;39;20058;-65
2023/08/18 01:56:08;;;;;;;9.43;8.50;;;;;;;19.11;85.38;101458.13;3613250;39;20047;-65
2023/08/18 01:58:34;;;;;;;9.20;8.10;;;;;;;19.11;85.10;101459.00;3616547;39;20070;-65
2023/08/18 02:01:00;;;;;;;8.35;7.25;;;;;;;19.10;85.55;101451.84;3615236;39;20051;-65
2023/08/18 02:03:27;;;;;;;9.18;8.15;;;;;;;18.95;85.24;101410.44;3612924;39;20050;-65
2023/08/18 02:05:56;;;;;;;8.70;7.90;;;;;;;19.08;84.54;101445.63;3614176;39;20426;-65
2023/08/18 02:08:21;;;;;;;8.82;7.93;;;;;;;19.06;84.87;101447.66;3614118;39;20078;-65
2023/08/18 02:10:47;;;;;;;9.48;8.57;;;;;;;19.04;84.81;101449.66;3615592;39;20535;-64
2023/08/18 02:13:14;;;;;;;9.68;8.77;;;;;;;19.03;84.99;101461.56;3614388;39;20065;-65
2023/08/18 02:15:39;;;;;;;9.10;8.20;;;;;;;18.96;84.83;101444.84;3614984;39;20065;-65
2023/08/18 02:18:05;;;;;;;9.77;8.63;;;;;;;18.93;85.42;101436.09;3614528;39;20091;-65
2023/08/18 02:20:32;;;;;;;9.73;8.38;;;;;;;18.99;85.93;101451.91;3614013;39;20055;-65
2023/08/18 02:22:57;;;;;;;10.23;9.20;;;;;;;18.97;86.25;101452.03;3613105;39;20089;-65
2023/08/18 02:25:23;;;;;;;11.27;9.48;;;;;;;18.96;86.17;101455.75;3616985;39;20386;-65
2023/08/18 02:27:49;;;;;;;10.25;9.25;;;;;;;18.95;85.46;101453.16;3614120;39;20059;-65
2023/08/18 02:30:16;;;;;;;10.50;9.30;;;;;;;18.81;85.55;101431.69;3616792;39;20312;-65
2023/08/18 02:32:42;;;;;;;9.85;8.85;;;;;;;18.92;85.39;101448.84;3614266;39;20054;-65
2023/08/18 02:35:08;;;;;;;9.93;8.93;;;;;;;18.91;84.68;101447.13;3615203;39;20051;-65
2023/08/18 02:37:34;;;;;;;10.25;9.25;;;;;;;18.89;85.08;101448.25;3614319;39;20075;-65
2023/08/18 02:39:59;;;;;;;11.70;9.15;;;;;;;18.87;85.36;101444.78;3612190;39;20062;-65
2023/08/18 02:42:25;;;;;;;10.75;9.65;;;;;;;18.84;85.04;101440.50;3614061;39;20084;-64
2023/08/18 02:44:50;;;;;;;11.43;10.30;;;;;;;18.83;86.16;101443.34;3614981;39;20069;-64
2023/08/18 02:47:17;;;;;;;13.60;10.95;;;;;;;18.78;85.87;101439.16;3615673;39;20062;-64
2023/08/18 02:49:42;;;;;;;11.45;10.35;;;;;;;18.78;86.55;101441.88;3616995;39;20058;-65
2023/08/18 02:52:10;;;;;;;11.38;10.18;;;;;;;18.77;86.17;101445.63;3615286;39;20058;-64
2023/08/18 02:54:35;;;;;;;12.95;10.07;;;;;;;18.78;86.50;101443.75;3614968;39;20055;-65
2023/08/18 02:57:01;;;;;;;11.13;10.02;;;;;;;18.72;86.20;101427.91;3615306;39;20138;-64
2023/08/18 02:59:27;;;;;;;10.88;9.77;;;;;;;18.77;85.67;101437.44;3613386;39;20119;-64
2023/08/18 03:01:53;;;;;;;11.23;10.13;;;;;;;18.71;86.07;101427.03;3617617;39;20047;-65
2023/08/18 03:04:19;;;;;;;11.25;10.05;;;;;;;18.77;86.10;101442.88;3612721;39;20373;-65
2023/08/18 03:06:44;;;;;;;10.23;9.25;;;;;;;18.78;85.82;101441.03;3615791;39;20046;-64
2023/08/18 03:09:10;;;;;;;11.32;10.32;;;;;;;18.79;85.67;101445.47;3617498;39;20066;-64
2023/08/18 03:11:36;;;;;;;13.35;10.25;;;;;;;18.77;85.38;101433.81;3615341;39;20150;-64
2023/08/18 03:14:05;;;;;;;12.18;10.20;;;;;;;18.76;85.76;101437.56;3618020;39;20076;-64
2023/08/18 03:16:31;;;;;;;12.45;10.48;;;;;;;18.74;85.43;101423.19;3617378;39;20046;-64
2023/08/18 03:18:56;;;;;;;11.40;10.27;;;;;;;18.72;85.98;101434.25;3613828;39;20051;-65
2023/08/18 03:21:22;;;;;;;10.73;9.63;;;;;;;18.73;86.02;101435.97;3613270;39;20095;-64
2023/08/18 03:23:47;;;;;;;12.32;10.80;;;;;;;18.58;85.39;101410.00;3613926;39;20055;-64
2023/08/18 03:26:13;;;;;;;12.57;11.35;;;;;;;18.64;85.78;101428.56;3606994;39;20062;-65
2023/08/18 03:28:39;;;;;;;12.13;11.02;;;;;;;18.71;86.16;101442.50;3613883;39;20061;-64
2023/08/18 03:31:07;;;;;;;11.93;10.60;;;;;;;18.70;85.52;101436.19;3618885;39;20057;-65
2023/08/18 03:33:34;;;;;;;14.30;12.82;;;;;;;18.70;85.67;101438.91;3607700;39;20055;-65
2023/08/18 03:36:00;;;;;;;12.65;11.35;;;;;;;18.69;86.61;101426.31;3617696;39;20046;-65
2023/08/18 03:38:26;;;;;;;13.60;11.00;;;;;;;18.70;86.08;101435.34;3617485;39;20059;-65
2023/08/18 03:41:02;;;;;;;13.00;10.82;;;;;;;18.66;86.26;101431.16;3614015;39;20047;-65
2023/08/18 03:43:28;;;;;;;12.00;10.80;;;;;;;18.50;86.32;101402.53;3612926;39;20061;-65
2023/08/18 03:45:59;;;;;;;12.82;11.50;;;;;;;18.61;86.27;101430.69;3603375;39;20091;-65
2023/08/18 03:48:25;;;;;;;13.77;11.75;;;;;;;18.62;87.09;101435.16;3616179;39;20363;-64
2023/08/18 03:50:50;;;;;;;13.50;12.05;;;;;;;18.41;87.30;101394.28;3615383;39;20070;-65
2023/08/18 03:53:16;;;;;;;13.15;11.75;;;;;;;18.55;87.06;101424.78;3615252;39;20058;-65
2023/08/18 03:55:41;;;;;;;14.30;12.77;;;;;;;18.55;87.25;101429.34;3618228;39;20089;-65
2023/08/18 03:58:07;;;;;;;14.30;12.80;;;;;;;18.54;87.33;101435.78;3617450;39;20046;-65
2023/08/18 04:00:32;;;;;;;14.10;12.10;;;;;;;18.53;87.01;101434.94;3613856;39;20629;-65
2023/08/18 04:02:58;;;;;;;14.02;12.25;;;;;;;18.40;86.78;101408.91;3614981;39;20054;-65
2023/08/18 04:05:24;;;;;;;14.98;12.32;;;;;;;18.50;87.32;101426.16;3614594;39;20289;-65
2023/08/18 04:07:50;;;;;;;14.40;12.90;;;;;;;18.46;86.89;101424.72;3618921;39;20042;-65
2023/08/18 04:10:16;;;;;;;15.48;12.60;;;;;;;18.40;87.06;101411.63;3614349;39;21282;-65
2023/08/18 04:12:42;;;;;;;14.05;12.55;;;;;;;18.46;87.80;101425.56;3616928;39;20176;-65
2023/08/18 04:15:08;;;;;;;13.80;12.38;;;;;;;18.47;87.00;101429.16;3614063;39;20050;-65
2023/08/18 04:17:33;;;;;;;15.27;12.70;;;;;;;18.50;87.30;101431.63;3608358;39;20083;-65
2023/08/18 04:19:59;;;;;;;14.38;12.73;;;;;;;18.51;87.52;101431.47;3612498;39;20062;-64
2023/08/18 04:22:24;;;;;;;13.52;12.13;;;;;;;18.50;87.37;101426.16;3616183;39;20050;-65
2023/08/18 04:24:50;;;;;;;18.85;12.60;;;;;;;18.50;87.31;101420.72;3612843;39;20402;-64
2023/08/18 04:27:16;;;;;;;13.35;11.48;;;;;;;18.49;87.45;101416.25;3615487;39;20053;-64
2023/08/18 04:29:42;;;;;;;13.40;12.00;;;;;;;18.52;86.94;101424.16;3614661;39;20063;-65
2023/08/18 04:32:07;;;;;;;13.98;11.45;;;;;;;18.53;86.79;101420.47;3615506;39;20059;-64
2023/08/18 04:34:33;;;;;;;14.32;12.18;;;;;;;18.49;86.93;101413.53;3615319;39;20066;-65
2023/08/18 04:36:58;;;;;;;15.20;11.75;;;;;;;18.48;87.21;101412.66;3615375;39;20054;-64
2023/08/18 04:39:24;;;;;;;14.73;12.18;;;;;;;18.47;87.00;101412.81;3614221;39;20051;-64
2023/08/18 04:41:49;;;;;;;13.13;11.77;;;;;;;18.45;87.67;101406.63;3614713;39;20062;-65
2023/08/18 04:44:15;;;;;;;13.65;11.82;;;;;;;18.50;87.02;101420.72;3617129;39;20046;-65
2023/08/18 04:46:41;;;;;;;16.25;12.68;;;;;;;18.50;87.02;101409.84;3614321;39;20058;-64
2023/08/18 04:49:06;;;;;;;12.95;11.43;;;;;;;18.48;86.82;101417.25;3615178;39;20396;-64
2023/08/18 04:51:32;;;;;;;14.82;12.20;;;;;;;18.37;87.26;101398.28;3615238;39;20592;-64
2023/08/18 04:53:58;;;;;;;14.73;12.35;;;;;;;18.50;87.20;101416.13;3615729;39;20059;-65
2023/08/18 04:56:23;;;;;;;14.27;12.23;;;;;;;18.50;87.25;101420.72;3615437;39;20053;-64
2023/08/18 04:58:49;;;;;;;14.65;12.27;;;;;;;18.50;88.05;101426.16;3618913;39;20050;-64
2023/08/18 05:01:15;;;;;;;16.25;12.82;;;;;;;18.52;88.16;101429.59;3612263;39;20058;-65
2023/08/18 05:03:40;;;;;;;17.10;13.18;;;;;;;18.52;88.44;101424.16;3613974;39;20069;-64
2023/08/18 05:06:12;;;;;;;17.63;14.30;;;;;;;18.51;88.34;101428.75;3612995;39;20062;-65
2023/08/18 05:08:42;;;;;;;17.67;13.40;;;;;;;18.53;87.85;101425.91;3614948;39;20061;-64
2023/08/18 05:11:12;;;;;;;17.90;13.68;;;;;;;18.50;87.88;101418.00;3616544;39;20057;-64
2023/08/18 05:13:41;;;;;;;18.52;13.85;;;;;;;18.52;88.08;101424.16;3617239;39;20058;-64
2023/08/18 05:16:07;;;;;;;17.88;14.55;;;;;;;18.53;88.08;101421.31;3615563;39;20056;-64
2023/08/18 05:18:34;;;;;;;20.08;13.98;;;;;;;18.57;88.27;101411.03;3615126;39;20321;-65
2023/08/18 05:21:01;;;;;;;17.75;13.50;;;;;;;18.59;87.86;101408.19;3616633;39;20046;-65
2023/08/18 05:23:29;;;;;;;16.63;13.90;;;;;;;18.57;87.40;101411.03;3615959;39;20062;-66
2023/08/18 05:25:56;;;;;;;17.35;13.75;;;;;;;18.60;87.66;101413.47;3615362;39;20057;-66
2023/08/18 05:28:23;;;;;;;18.58;15.13;;;;;;;18.61;87.99;101406.16;3612003;39;20381;-65
2023/08/18 05:30:52;;;;;;;18.35;14.32;;;;;;;18.61;88.33;101411.63;3612708;39;20062;-65
2023/08/18 05:33:18;;;;;;;17.80;14.00;;;;;;;18.46;87.72;101376.56;3613323;39;20163;-65
2023/08/18 05:35:44;;;;;;;17.55;14.48;;;;;;;18.61;88.66;101401.59;3614751;39;20373;-66
2023/08/18 05:38:11;;;;;;;17.52;14.77;;;;;;;18.65;88.40;101405.78;3614444;39;20068;-65
2023/08/18 05:40:45;;;;;;;17.42;14.13;;;;;;;18.67;88.86;101405.63;3613732;39;20223;-65
2023/08/18 05:43:13;;;;;;;19.17;14.63;;;;;;;18.68;88.24;101410.97;3613973;39;20051;-66
2023/08/18 05:45:42;;;;;;;17.20;14.25;;;;;;;18.71;87.72;101407.97;3614590;39;20055;-66
2023/08/18 05:48:08;;;;;;;17.50;15.07;;;;;;;18.73;88.37;101413.31;3614992;39;20340;-66
2023/08/18 05:50:34;;;;;;;15.93;13.90;;;;;;;18.75;88.62;101409.47;3605153;39;20058;-64
2023/08/18 05:53:02;;;;;;;17.85;14.57;;;;;;;18.79;88.00;101420.94;3613561;39;20405;-65
2023/08/18 05:55:29;;;;;;;17.60;14.88;;;;;;;18.75;87.80;101420.34;3612361;39;20055;-65
2023/08/18 05:57:59;;;;;;;17.13;14.30;;;;;;;18.68;88.43;101408.25;3612804;39;20062;-64
2023/08/18 06:00:27;;;;;;;17.45;14.98;;;;;;;18.70;88.11;101410.81;3612599;39;20051;-65
2023/08/18 06:02:54;;;;;;;17.00;14.48;;;;;;;18.72;88.37;101420.63;3616302;39;20436;-65
2023/08/18 06:05:21;;;;;;;17.05;14.65;;;;;;;18.56;88.74;101406.59;3611558;39;20100;-65
2023/08/18 06:07:46;;;;;;;16.98;14.60;;;;;;;18.71;88.06;101413.44;3613197;39;20051;-66
2023/08/18 06:10:12;;;;;;;16.80;14.45;;;;;;;18.74;88.19;101429.53;3615120;39;20061;-65
2023/08/18 06:12:38;;;;;;;18.67;15.15;;;;;;;18.73;88.35;101430.50;3615237;39;20362;-66
2023/08/18 06:15:12;;;;;;;17.98;15.55;;;;;;;18.73;88.10;101424.22;3615803;39;20297;-65
2023/08/18 06:17:38;;;;;;;19.13;16.30;;;;;;;18.69;88.74;101420.84;3613987;39;20386;-64
2023/08/18 06:20:04;;;;;;;19.38;16.88;;;;;;;18.69;88.88;101425.44;3615559;39;20062;-64
2023/08/18 06:22:30;;;;;;;19.70;16.70;;;;;;;18.68;89.11;101431.88;3618730;39;20350;-64
2023/08/18 06:24:56;;;;;;;20.52;16.88;;;;;;;18.66;89.80;101425.72;3617755;39;20053;-64
2023/08/18 06:27:21;;;;;;;19.00;17.00;;;;;;;18.66;90.08;101421.13;3615679;39;20054;-64
2023/08/18 06:29:47;;;;;;;21.02;17.83;;;;;;;18.59;90.23;101409.03;3618790;39;20081;-64
2023/08/18 06:32:13;;;;;;;22.17;18.35;;;;;;;18.64;90.61;101414.06;3618660;39;20553;-64
2023/08/18 06:34:38;;;;;;;21.23;17.65;;;;;;;18.65;90.84;101415.78;3615254;39;20065;-64
2023/08/18 06:37:04;;;;;;;21.33;18.27;;;;;;;18.60;90.40;101405.31;3613067;39;20063;-64
2023/08/18 06:39:29;;;;;;;20.58;18.35;;;;;;;18.58;90.11;101404.56;3615105;39;20401;-65
2023/08/18 06:41:55;;;;;;;22.75;18.25;;;;;;;18.65;90.38;101410.34;3615601;39;20050;-64
2023/08/18 06:44:21;;;;;;;22.77;18.95;;;;;;;18.65;90.68;101410.34;3613462;39;20173;-64
2023/08/18 06:46:47;;;;;;;21.42;18.33;;;;;;;18.64;90.48;101406.75;3616931;39;20381;-64
2023/08/18 06:49:13;;;;;;;21.55;18.52;;;;;;;18.71;90.84;101416.16;3612897;39;20124;-64
2023/08/18 06:51:39;;;;;;;21.52;18.63;;;;;;;18.66;91.31;101415.69;3613128;39;20055;-64
2023/08/18 06:54:05;;;;;;;22.35;18.38;;;;;;;18.72;91.19;101414.28;3614270;39;20066;-64
2023/08/18 06:56:31;;;;;;;20.50;17.90;;;;;;;18.71;90.59;101407.09;3613312;39;20062;-65
2023/08/18 06:58:57;;;;;;;21.15;18.50;;;;;;;18.77;90.90;101407.47;3614641;39;20055;-64
2023/08/18 07:01:22;;;;;;;20.67;17.77;;;;;;;18.85;90.98;101401.34;3616894;39;20050;-64
2023/08/18 07:03:48;;;;;;;20.65;17.65;;;;;;;18.91;90.59;101409.00;3614471;39;20078;-64
2023/08/18 07:06:14;;;;;;;22.08;17.95;;;;;;;18.96;89.54;101397.66;3614997;39;20066;-64
2023/08/18 07:08:39;;;;;;;18.60;16.58;;;;;;;18.94;89.54;101396.97;3614388;39;20042;-64
2023/08/18 07:11:05;;;;;;;21.15;17.38;;;;;;;18.98;90.70;101398.41;3615860;39;20059;-65
2023/08/18 07:13:31;;;;;;;19.67;17.08;;;;;;;19.04;89.25;101391.56;3617125;39;20062;-64
2023/08/18 07:15:56;;;;;;;20.38;17.70;;;;;;;19.10;89.97;101386.44;3617013;39;20061;-64
2023/08/18 07:18:22;;;;;;;21.92;17.48;;;;;;;19.15;89.21;101388.72;3617213;39;20141;-64
2023/08/18 07:20:48;;;;;;;19.33;17.17;;;;;;;19.21;88.84;101389.03;3614573;39;20348;-65
2023/08/18 07:23:14;;;;;;;19.88;17.70;;;;;;;19.28;89.61;101393.94;3614732;39;20043;-67
2023/08/18 07:25:41;;;;;;;22.38;18.35;;;;;;;19.35;88.69;101395.16;3613446;39;20065;-66
2023/08/18 07:28:07;;;;;;;21.92;18.38;;;;;;;19.40;88.46;101395.56;3615261;39;20054;-67
2023/08/18 07:30:33;;;;;;;20.30;17.73;;;;;;;19.45;87.85;101405.06;3615248;39;20442;-67
2023/08/18 07:32:59;;;;;;;20.63;17.83;;;;;;;19.47;87.65;101404.91;3613088;39;20066;-67
2023/08/18 07:35:25;;;;;;;21.42;17.55;;;;;;;19.49;87.14;101406.50;3614957;39;20055;-67
2023/08/18 07:37:52;;;;;;;20.92;18.17;;;;;;;19.49;88.27;101405.66;3611391;39;20542;-68
2023/08/18 07:40:19;;;;;;;19.88;16.77;;;;;;;19.54;88.53;101399.81;3613053;39;20054;-67
2023/08/18 07:42:45;;;;;;;22.20;18.80;;;;;;;19.58;88.10;101399.38;3613551;39;20054;-67
2023/08/18 07:45:11;;;;;;;21.30;17.98;;;;;;;19.61;87.67;101396.34;3616986;39;20039;-67
2023/08/18 07:47:38;;;;;;;25.17;20.08;;;;;;;19.43;86.50;101365.31;3614321;39;20058;-67
2023/08/18 07:50:08;;;;;;;21.77;19.00;;;;;;;19.63;87.54;101397.09;3615391;39;20058;-67
2023/08/18 07:52:34;;;;;;;21.63;19.25;;;;;;;19.59;87.26;101400.22;3617366;39;20058;-67
2023/08/18 07:55:03;;;;;;;20.67;18.45;;;;;;;19.61;86.96;101392.78;3612329;39;20062;-66
2023/08/18 07:57:28;;;;;;;20.58;18.38;;;;;;;19.73;86.74;101420.81;3615420;39;20062;-66
2023/08/18 07:59:55;;;;;;;20.90;18.70;;;;;;;19.65;87.24;101400.56;3615509;39;20061;-66
2023/08/18 08:02:21;;;;;;;20.60;17.80;;;;;;;19.77;86.67;101419.56;3616091;39;20336;-66
2023/08/18 08:04:47;;;;;;;20.30;18.10;;;;;;;19.80;86.10;101411.09;3614407;39;20424;-66
2023/08/18 08:07:13;;;;;;;21.92;18.40;;;;;;;19.80;86.65;101411.94;3604027;39;20046;-66
2023/08/18 08:09:39;;;;;;;20.75;18.05;;;;;;;19.69;86.65;101387.50;3615242;39;20077;-67
2023/08/18 08:12:05;;;;;;;19.40;17.27;;;;;;;19.84;86.04;101407.06;3613024;39;20063;-67
2023/08/18 08:14:31;;;;;;;19.67;17.15;;;;;;;19.73;86.20;101394.41;3614089;39;20067;-67
2023/08/18 08:16:58;;;;;;;19.25;16.88;;;;;;;19.85;86.62;101411.50;3613281;39;20067;-66
2023/08/18 08:19:24;;;;;;;18.13;16.25;;;;;;;19.87;86.72;101423.16;3613243;39;20049;-67
2023/08/18 08:21:50;;;;;;;19.80;17.48;;;;;;;19.87;86.46;101417.69;3614907;39;20059;-67
2023/08/18 08:24:16;;;;;;;19.60;17.50;;;;;;;19.86;86.79;101415.97;3615530;39;20065;-67
2023/08/18 08:26:42;;;;;;;18.90;16.88;;;;;;;19.87;85.58;101406.78;3612961;39;20313;-66
2023/08/18 08:29:07;;;;;;;20.48;17.45;;;;;;;19.61;86.81;101376.41;3614297;39;20438;-66
2023/08/18 08:31:33;;;;;;;18.95;16.63;;;;;;;19.83;86.73;101427.19;3613376;39;20059;-66
2023/08/18 08:33:59;;;;;;;19.00;17.00;;;;;;;19.84;87.05;101424.28;3612930;39;20367;-66
2023/08/18 08:36:24;;;;;;;19.08;17.05;;;;;;;19.88;86.40;101413.94;3614937;39;20053;-66
2023/08/18 08:38:51;;;;;;;19.88;17.23;;;;;;;19.83;87.07;101438.09;3613772;39;20069;-68
2023/08/18 08:41:17;;;;;;;20.13;17.35;;;;;;;19.89;87.13;101432.06;3615681;39;20285;-67
2023/08/18 08:43:42;;;;;;;18.40;16.42;;;;;;;19.94;86.94;101437.94;3615313;39;20075;-66
2023/08/18 08:46:08;;;;;;;19.15;16.90;;;;;;;19.90;87.01;101429.19;3616026;39;20099;-66
2023/08/18 08:48:45;;;;;;;18.80;16.90;;;;;;;19.99;87.06;101441.13;3614846;39;20066;-67
2023/08/18 08:51:14;;;;;;;19.75;16.80;;;;;;;20.03;85.58;101439.84;3612938;39;20050;-66
2023/08/18 08:53:47;;;;;;;18.48;16.48;;;;;;;20.02;86.37;101431.81;3614370;39;20140;-66
2023/08/18 08:56:18;;;;;;;18.95;16.50;;;;;;;19.98;85.70;101443.97;3614915;39;20100;-66
2023/08/18 08:58:46;;;;;;;18.05;16.17;;;;;;;19.99;86.45;101432.94;3614963;39;20374;-66
2023/08/18 09:01:12;;;;;;;20.45;17.05;;;;;;;19.91;85.99;101428.16;3612074;39;20055;-65
2023/08/18 09:03:39;;;;;;;20.30;18.08;;;;;;;19.98;85.99;101436.69;3613592;39;20411;-66
2023/08/18 09:06:06;;;;;;;18.08;16.20;;;;;;;19.94;86.17;101447.00;3612107;39;20388;-66
2023/08/18 09:08:32;;;;;;;19.02;16.20;;;;;;;19.99;86.85;101445.72;3612825;39;20063;-66
2023/08/18 09:10:58;;;;;;;20.10;17.98;;;;;;;20.04;86.38;101441.56;3613818;39;20066;-65
2023/08/18 09:13:24;;;;;;;20.35;18.25;;;;;;;19.94;85.90;101418.84;3615420;39;21090;-66
2023/08/18 09:15:50;;;;;;;22.02;18.15;;;;;;;20.01;85.74;101420.00;3611966;39;20055;-66
2023/08/18 09:18:17;;;;;;;21.30;18.02;;;;;;;20.10;85.85;101448.31;3615619;39;20061;-66
2023/08/18 09:20:45;;;;;;;22.88;19.73;;;;;;;20.03;85.83;101439.84;3602927;39;20062;-66
2023/08/18 09:23:11;;;;;;;23.05;19.50;;;;;;;20.12;86.07;101443.59;3612356;39;20429;-65
2023/08/18 09:25:37;;;;;;;21.15;18.98;;;;;;;20.12;86.67;101427.22;3617647;39;20065;-66
2023/08/18 09:28:04;;;;;;;20.90;17.77;;;;;;;20.16;86.36;101429.50;3613642;39;20057;-66
2023/08/18 09:30:31;;;;;;;20.70;18.50;;;;;;;20.26;86.40;101421.31;3612161;39;20051;-66
2023/08/18 09:33:01;;;;;;;20.95;18.27;;;;;;;20.28;85.71;101423.91;3613103;39;20501;-67
2023/08/18 09:35:34;;;;;;;21.25;18.95;;;;;;;20.35;85.52;101423.19;3616338;39;20038;-67
2023/08/18 09:38:01;;;;;;;23.50;21.00;;;;;;;20.39;84.46;101429.22;3613049;39;20130;-67
2023/08/18 09:40:28;;;;;;;22.15;19.75;;;;;;;20.42;85.76;101439.84;3613934;39;20061;-67
2023/08/18 09:42:55;;;;;;;21.80;19.38;;;;;;;20.48;84.93;101427.50;3614838;39;20058;-67
2023/08/18 09:45:24;;;;;;;21.45;18.75;;;;;;;20.57;85.23;101422.06;3615796;39;20075;-67
2023/08/18 09:47:56;;;;;;;20.98;18.55;;;;;;;20.69;84.75;101430.13;3613130;39;20053;-67
2023/08/18 09:50:30;;;;;;;21.90;18.67;;;;;;;20.76;84.27;101423.06;3613792;39;20059;-67
2023/08/18 09:52:58;;;;;;;21.17;17.92;;;;;;;20.82;83.55;101431.53;3615364;39;20058;-67
2023/08/18 09:55:41;;;;;;;21.90;19.55;;;;;;;20.92;83.01;101426.03;3617955;39;20156;-66
2023/08/18 09:58:30;;;;;;;20.83;18.70;;;;;;;20.93;82.65;101421.41;3618781;39;20381;-66
2023/08/18 10:00:56;;;;;;;20.65;18.48;;;;;;;20.98;82.83;101425.44;3613611;39;20255;-66
2023/08/18 10:03:28;;;;;;;20.92;18.75;;;;;;;21.01;82.42;101419.69;3613776;39;20051;-66
2023/08/18 10:05:56;;;;;;;22.02;19.67;;;;;;;20.63;81.77;101345.00;3612759;39;20047;-66
2023/08/18 10:08:23;;;;;;;21.63;18.67;;;;;;;21.10;82.38;101421.53;3617866;39;20047;-66
2023/08/18 10:10:50;;;;;;;21.40;19.13;;;;;;;21.15;81.82;101420.19;3614576;39;20154;-66
2023/08/18 10:13:18;;;;;;;22.00;19.33;;;;;;;21.18;81.67;101414.44;3611904;39;20065;-66
2023/08/18 10:15:46;;;;;;;21.75;19.45;;;;;;;21.19;81.48;101413.44;3615331;39;20069;-66
2023/08/18 10:18:12;;;;;;;22.45;20.05;;;;;;;21.26;81.54;101406.34;3616143;39;20061;-66
2023/08/18 10:20:52;;;;;;;24.27;21.75;;;;;;;21.30;80.50;101407.78;3615484;39;20066;-66
2023/08/18 10:23:18;;;;;;;24.60;21.60;;;;;;;21.37;80.01;101411.66;3616024;39;20111;-66
2023/08/18 10:25:48;;;;;;;25.30;22.58;;;;;;;21.36;80.88;101407.22;3612769;39;20099;-66
2023/08/18 10:28:26;;;;;;;24.33;21.83;;;;;;;21.47;80.41;101395.19;3614955;39;20051;-66
2023/08/18 10:31:05;;;;;;;23.23;20.88;;;;;;;21.55;80.21;101390.69;3613613;39;20495;-66
2023/08/18 10:33:36;;;;;;;22.67;20.27;;;;;;;21.68;80.05;101392.19;3602897;39;20063;-66
2023/08/18 10:36:04;;;;;;;22.23;19.90;;;;;;;21.84;80.32;101395.13;3613280;39;20087;-66
2023/08/18 10:38:35;;;;;;;22.75;20.40;;;;;;;21.90;78.52;101389.03;3616961;39;20049;-66
2023/08/18 10:41:02;;;;;;;22.33;20.02;;;;;;;21.95;78.03;101392.19;3612195;39;20050;-66
2023/08/18 10:43:28;;;;;;;23.77;20.23;;;;;;;21.91;78.89;101368.00;3611579;39;20065;-66
2023/08/18 10:46:00;;;;;;;22.08;19.48;;;;;;;22.14;77.79;101393.06;3608758;39;20781;-66
2023/08/18 10:48:33;;;;;;;22.63;20.20;;;;;;;22.19;78.20;101388.81;3610249;39;20103;-66
2023/08/18 10:51:00;;;;;;;22.65;20.25;;;;;;;22.27;77.89;101374.38;3608920;39;20054;-67
2023/08/18 10:53:31;;;;;;;20.52;18.42;;;;;;;22.45;76.92;101382.53;3611114;39;20078;-66
2023/08/18 10:55:57;;;;;;;20.80;18.60;;;;;;;22.47;76.17;101369.56;3609523;39;20103;-66
2023/08/18 10:58:22;;;;;;;22.15;17.65;;;;;;;22.55;76.78;101377.84;3609777;39;20475;-66
2023/08/18 11:00:50;;;;;;;21.63;19.42;;;;;;;22.67;75.89;101372.94;3611261;39;20050;-65
2023/08/18 11:03:16;;;;;;;19.38;17.38;;;;;;;22.78;76.07;101369.09;3613078;39;20128;-66
2023/08/18 11:05:42;;;;;;;21.13;19.13;;;;;;;22.89;76.36;101369.66;3610491;39;20130;-66
2023/08/18 11:08:10;;;;;;;24.25;21.30;;;;;;;23.00;74.84;101370.47;3610333;39;20063;-66
2023/08/18 11:10:39;;;;;;;23.77;21.27;;;;;;;23.04;73.93;101369.13;3611167;39;20333;-66